createdAt,value
2019-01-30T00:01:17.878Z,10.10
2019-01-30T00:03:45.235Z,10.28
2019-01-30T00:06:12.230Z,11.28
2019-01-30T00:08:39.410Z,12.07
2019-01-30T00:11:06.552Z,10.78
2019-01-30T00:13:33.374Z,11.55
2019-01-30T00:16:00.281Z,10.60
2019-01-30T00:18:27.457Z,10.95
2019-01-30T00:20:54.646Z,12.10
2019-01-30T00:23:21.536Z,10.70
2019-01-30T00:25:48.462Z,10.32
2019-01-30T00:28:15.605Z,11.15
2019-01-30T00:30:42.777Z,11.70
2019-01-30T00:33:09.845Z,10.55
2019-01-30T00:35:36.702Z,10.25
2019-01-30T00:38:03.705Z,11.85
2019-01-30T00:40:30.616Z,11.68
2019-01-30T00:42:57.419Z,11.65
2019-01-30T00:45:24.714Z,12.07
2019-01-30T00:47:51.515Z,10.95
2019-01-30T00:50:18.543Z,11.65
2019-01-30T00:52:45.528Z,10.75
2019-01-30T00:55:13.849Z,10.25
2019-01-30T00:57:40.892Z,11.28
2019-01-30T01:00:14.559Z,12.07
2019-01-30T01:02:40.750Z,12.82
2019-01-30T01:05:07.855Z,12.35
2019-01-30T01:07:34.937Z,11.43
2019-01-30T01:10:03.410Z,11.93
2019-01-30T01:12:30.557Z,12.37
2019-01-30T01:14:57.619Z,11.40
2019-01-30T01:17:24.924Z,11.33
2019-01-30T01:19:51.820Z,10.13
2019-01-30T01:22:18.837Z,11.18
2019-01-30T01:24:45.728Z,12.63
2019-01-30T01:27:12.884Z,11.80
2019-01-30T01:29:39.900Z,12.20
2019-01-30T01:32:06.921Z,12.25
2019-01-30T01:34:33.972Z,11.38
2019-01-30T01:37:00.884Z,13.60
2019-01-30T01:39:28.666Z,9.68
2019-01-30T01:41:55.862Z,11.85
2019-01-30T01:44:22.774Z,12.25
2019-01-30T01:46:53.140Z,12.73
2019-01-30T01:49:20.045Z,10.50
2019-01-30T01:51:47.145Z,11.10
2019-01-30T01:54:14.053Z,12.10
2019-01-30T01:56:41.069Z,11.80
2019-01-30T01:59:08.212Z,11.60
2019-01-30T02:01:37.460Z,12.30
2019-01-30T02:04:04.503Z,11.93
2019-01-30T02:06:31.404Z,11.22
2019-01-30T02:08:58.473Z,12.63
2019-01-30T02:11:25.505Z,12.70
2019-01-30T02:13:52.640Z,12.03
2019-01-30T02:16:19.709Z,11.73
2019-01-30T02:18:46.609Z,14.23
2019-01-30T02:21:13.789Z,12.05
2019-01-30T02:23:40.690Z,12.78
2019-01-30T02:26:07.686Z,12.15
2019-01-30T02:28:34.505Z,14.53
2019-01-30T02:31:01.515Z,15.70
2019-01-30T02:33:28.560Z,14.38
2019-01-30T02:35:55.720Z,14.35
2019-01-30T02:38:22.781Z,12.28
2019-01-30T02:40:49.591Z,13.48
2019-01-30T02:43:16.400Z,10.10
2019-01-30T02:45:43.396Z,13.25
2019-01-30T02:48:10.414Z,13.58
2019-01-30T02:50:37.309Z,15.23
2019-01-30T02:53:04.318Z,14.73
2019-01-30T02:55:31.129Z,12.30
2019-01-30T02:57:58.381Z,11.50
2019-01-30T03:00:27.223Z,11.50
2019-01-30T03:02:54.237Z,11.43
2019-01-30T03:05:21.244Z,12.53
2019-01-30T03:07:48.251Z,12.40
2019-01-30T03:10:16.393Z,12.05
2019-01-30T03:12:43.550Z,12.35
2019-01-30T03:15:11.169Z,12.07
2019-01-30T03:17:38.092Z,11.90
2019-01-30T03:20:07.029Z,13.15
2019-01-30T03:22:34.310Z,13.18
2019-01-30T03:25:01.313Z,13.60
2019-01-30T03:27:28.358Z,12.53
2019-01-30T03:29:55.173Z,12.63
2019-01-30T03:32:22.074Z,14.13
2019-01-30T03:34:48.901Z,13.70
2019-01-30T03:37:15.949Z,13.98
2019-01-30T03:39:43.053Z,13.78
2019-01-30T03:42:09.850Z,14.25
2019-01-30T03:44:36.762Z,15.00
2019-01-30T03:47:03.758Z,14.05
2019-01-30T03:49:30.663Z,13.40
2019-01-30T03:51:57.831Z,12.40
2019-01-30T03:54:24.743Z,14.87
2019-01-30T03:56:52.052Z,14.98
2019-01-30T03:59:19.118Z,13.85
2019-01-30T04:01:46.158Z,13.35
2019-01-30T04:04:13.067Z,12.30
2019-01-30T04:06:39.961Z,13.35
2019-01-30T04:09:07.052Z,13.40
2019-01-30T04:11:34.211Z,12.63
2019-01-30T04:14:01.130Z,13.48
2019-01-30T04:16:28.025Z,14.15
2019-01-30T04:18:55.329Z,17.40
2019-01-30T04:21:22.419Z,16.05
2019-01-30T04:23:49.489Z,17.98
2019-01-30T04:26:16.287Z,15.90
2019-01-30T04:28:43.085Z,17.85
2019-01-30T04:31:10.103Z,15.78
2019-01-30T04:33:37.185Z,14.30
2019-01-30T04:36:04.449Z,17.25
2019-01-30T04:38:31.252Z,15.35
2019-01-30T04:40:58.409Z,14.33
2019-01-30T04:43:25.418Z,13.68
2019-01-30T04:45:52.225Z,12.68
2019-01-30T04:48:19.368Z,13.62
2019-01-30T04:50:46.283Z,12.47
2019-01-30T04:53:13.473Z,12.63
2019-01-30T04:55:40.485Z,12.98
2019-01-30T04:58:07.409Z,13.60
2019-01-30T05:00:34.415Z,12.13
2019-01-30T05:03:01.313Z,12.53
2019-01-30T05:05:28.490Z,13.30
2019-01-30T05:07:55.390Z,14.90
2019-01-30T05:10:22.845Z,14.70
2019-01-30T05:12:49.853Z,14.63
2019-01-30T05:15:17.792Z,12.73
2019-01-30T05:17:44.802Z,13.15
2019-01-30T05:20:13.191Z,13.10
2019-01-30T05:22:40.274Z,13.68
2019-01-30T05:25:07.674Z,13.15
2019-01-30T05:27:34.732Z,12.20
2019-01-30T05:30:01.733Z,13.35
2019-01-30T05:32:28.801Z,12.70
2019-01-30T05:34:55.609Z,13.20
2019-01-30T05:37:22.489Z,13.98
2019-01-30T05:39:49.569Z,14.38
2019-01-30T05:42:16.491Z,13.35
2019-01-30T05:44:43.289Z,13.00
2019-01-30T05:47:10.193Z,12.82
2019-01-30T05:49:37.233Z,14.20
2019-01-30T05:52:04.253Z,13.60
2019-01-30T05:54:31.318Z,14.47
2019-01-30T05:56:58.362Z,17.90
2019-01-30T05:59:25.166Z,15.50
2019-01-30T06:01:52.218Z,12.70
2019-01-30T06:04:19.116Z,12.33
2019-01-30T06:06:46.059Z,13.03
2019-01-30T06:09:12.929Z,14.68
2019-01-30T06:11:40.210Z,13.68
2019-01-30T06:14:07.122Z,13.80
2019-01-30T06:16:33.929Z,14.58
2019-01-30T06:19:00.846Z,16.10
2019-01-30T06:21:27.636Z,13.35
2019-01-30T06:23:54.656Z,13.80
2019-01-30T06:26:21.560Z,12.90
2019-01-30T06:28:48.380Z,14.80
2019-01-30T06:31:15.399Z,13.88
2019-01-30T06:33:42.454Z,14.45
2019-01-30T06:36:09.368Z,14.75
2019-01-30T06:38:36.562Z,14.70
2019-01-30T06:41:03.548Z,18.37
2019-01-30T06:43:30.461Z,17.60
2019-01-30T06:45:57.262Z,13.53
2019-01-30T06:48:24.170Z,17.20
2019-01-30T06:50:51.412Z,16.90
2019-01-30T06:53:18.217Z,17.50
2019-01-30T06:55:45.230Z,19.82
2019-01-30T06:58:12.245Z,17.80
2019-01-30T07:00:39.146Z,16.35
2019-01-30T07:03:06.493Z,14.45
2019-01-30T07:05:33.307Z,17.23
2019-01-30T07:08:00.378Z,14.15
2019-01-30T07:10:27.812Z,14.28
2019-01-30T07:12:55.266Z,14.05
2019-01-30T07:15:22.505Z,13.00
2019-01-30T07:17:49.534Z,13.18
2019-01-30T07:20:16.809Z,12.73
2019-01-30T07:22:44.052Z,12.53
2019-01-30T07:25:12.834Z,13.65
2019-01-30T07:27:39.641Z,14.43
2019-01-30T07:30:11.334Z,14.87
2019-01-30T07:32:42.224Z,17.98
2019-01-30T07:35:07.166Z,14.45
2019-01-30T07:37:34.081Z,14.43
2019-01-30T07:40:00.901Z,14.50
2019-01-30T07:42:27.994Z,14.15
2019-01-30T07:44:54.913Z,16.45
2019-01-30T07:47:21.704Z,14.87
2019-01-30T07:49:48.512Z,13.45
2019-01-30T07:52:15.505Z,15.45
2019-01-30T07:54:42.410Z,14.83
2019-01-30T07:57:09.578Z,14.07
2019-01-30T07:59:36.726Z,13.08
2019-01-30T08:02:03.742Z,14.33
2019-01-30T08:04:30.795Z,15.08
2019-01-30T08:06:57.613Z,17.62
2019-01-30T08:09:24.417Z,15.65
2019-01-30T08:11:51.582Z,18.80
2019-01-30T08:14:18.829Z,16.00
2019-01-30T08:16:47.975Z,16.73
2019-01-30T08:19:14.699Z,18.35
2019-01-30T08:21:41.818Z,16.57
2019-01-30T08:24:08.893Z,18.60
2019-01-30T08:26:36.107Z,17.32
2019-01-30T08:29:03.430Z,23.87
2019-01-30T08:31:30.396Z,19.23
2019-01-30T08:33:57.446Z,19.30
2019-01-30T08:36:24.486Z,17.25
2019-01-30T08:38:51.556Z,16.37
2019-01-30T08:41:18.793Z,18.48
2019-01-30T08:43:45.947Z,17.32
2019-01-30T08:46:13.122Z,17.65
2019-01-30T08:48:40.031Z,18.82
2019-01-30T08:51:07.017Z,16.70
2019-01-30T08:53:33.924Z,18.40
2019-01-30T08:56:00.829Z,17.60
2019-01-30T08:58:27.989Z,16.23
2019-01-30T09:00:55.426Z,18.05
2019-01-30T09:03:22.333Z,18.00
2019-01-30T09:05:49.947Z,14.50
2019-01-30T09:08:17.026Z,16.57
2019-01-30T09:10:44.020Z,16.50
2019-01-30T09:13:10.829Z,17.10
2019-01-30T09:15:37.868Z,16.90
2019-01-30T09:18:05.193Z,16.07
2019-01-30T09:20:31.996Z,18.85
2019-01-30T09:22:59.073Z,15.88
2019-01-30T09:25:27.689Z,18.48
2019-01-30T09:27:54.797Z,17.82
2019-01-30T09:30:32.785Z,20.02
2019-01-30T09:32:59.840Z,20.70
2019-01-30T09:35:27.252Z,24.00
2019-01-30T09:37:55.236Z,22.62
2019-01-30T09:40:22.625Z,19.52
2019-01-30T09:42:50.130Z,18.07
2019-01-30T09:45:17.421Z,18.27
2019-01-30T09:47:44.427Z,17.77
2019-01-30T09:50:13.854Z,17.77
2019-01-30T09:52:40.753Z,17.67
2019-01-30T09:55:08.913Z,17.92
2019-01-30T09:57:35.821Z,15.43
2019-01-30T10:00:04.509Z,16.30
2019-01-30T10:02:31.301Z,19.23
2019-01-30T10:04:58.105Z,13.72
2019-01-30T10:07:25.258Z,16.55
2019-01-30T10:09:52.173Z,13.90
2019-01-30T10:12:18.972Z,14.43
2019-01-30T10:14:45.886Z,14.45
2019-01-30T10:17:13.042Z,13.70
2019-01-30T10:19:41.817Z,14.38
2019-01-30T10:22:09.205Z,13.50
2019-01-30T10:24:36.015Z,13.18
2019-01-30T10:27:03.014Z,11.95
2019-01-30T10:29:29.826Z,14.60
2019-01-30T10:31:57.669Z,16.60
2019-01-30T10:34:24.480Z,14.23
2019-01-30T10:36:51.404Z,12.95
2019-01-30T10:39:18.296Z,12.73
2019-01-30T10:41:45.110Z,11.90
2019-01-30T10:44:11.917Z,12.93
2019-01-30T10:46:38.730Z,12.13
2019-01-30T10:49:05.725Z,11.70
2019-01-30T10:51:32.737Z,10.20
2019-01-30T10:53:59.893Z,12.20
2019-01-30T10:56:26.805Z,13.13
2019-01-30T10:58:53.613Z,15.50
2019-01-30T11:01:20.893Z,12.80
2019-01-30T11:03:57.084Z,11.03
2019-01-30T11:06:16.521Z,12.20
2019-01-30T11:08:43.327Z,10.85
2019-01-30T11:11:10.240Z,14.70
2019-01-30T11:13:37.405Z,11.88
2019-01-30T11:16:04.526Z,11.30
2019-01-30T11:18:31.894Z,10.65
2019-01-30T11:20:58.818Z,14.23
2019-01-30T11:23:25.833Z,16.75
2019-01-30T11:25:52.827Z,16.00
2019-01-30T11:28:19.779Z,13.05
2019-01-30T11:30:46.785Z,17.90
2019-01-30T11:33:13.954Z,19.23
2019-01-30T11:35:40.871Z,17.05
2019-01-30T11:38:09.004Z,14.73
2019-01-30T11:40:36.349Z,12.80
2019-01-30T11:43:03.629Z,12.20
2019-01-30T11:45:33.146Z,27.37
2019-01-30T11:48:00.193Z,19.98
2019-01-30T11:50:27.226Z,21.10
2019-01-30T11:52:54.393Z,11.57
2019-01-30T11:55:21.406Z,10.88
2019-01-30T11:57:48.327Z,12.25
2019-01-30T12:00:23.670Z,15.05
2019-01-30T12:02:50.713Z,13.85
2019-01-30T12:05:17.980Z,10.93
2019-01-30T12:07:45.236Z,10.18
2019-01-30T12:10:12.703Z,13.03
2019-01-30T12:12:39.915Z,16.50
2019-01-30T12:15:10.221Z,14.05
2019-01-30T12:17:37.206Z,13.00
2019-01-30T12:20:06.477Z,8.03
2019-01-30T12:22:33.396Z,7.53
2019-01-30T12:25:00.249Z,9.30
2019-01-30T12:27:27.157Z,13.38
2019-01-30T12:29:54.330Z,10.35
2019-01-30T12:32:21.440Z,13.55
2019-01-30T12:34:48.370Z,11.65
2019-01-30T12:37:15.173Z,9.78
2019-01-30T12:39:42.185Z,9.55
2019-01-30T12:42:09.090Z,6.58
2019-01-30T12:44:35.999Z,8.80
2019-01-30T12:47:02.917Z,8.83
2019-01-30T12:49:29.736Z,8.35
2019-01-30T12:51:56.538Z,7.47
2019-01-30T12:54:23.556Z,6.80
2019-01-30T12:56:50.708Z,6.20
2019-01-30T12:59:17.512Z,4.92
2019-01-30T13:01:44.560Z,5.05
2019-01-30T13:04:11.480Z,4.80
2019-01-30T13:06:38.716Z,4.60
2019-01-30T13:09:07.774Z,4.37
2019-01-30T13:11:34.772Z,4.20
2019-01-30T13:14:01.685Z,5.80
2019-01-30T13:16:28.755Z,4.62
2019-01-30T13:18:55.958Z,4.60
2019-01-30T13:21:23.029Z,4.35
2019-01-30T13:23:50.048Z,4.10
2019-01-30T13:26:17.414Z,3.75
2019-01-30T13:28:44.480Z,3.27
2019-01-30T13:31:11.440Z,3.25
2019-01-30T13:33:38.442Z,3.45
2019-01-30T13:36:06.860Z,3.80
2019-01-30T13:38:34.006Z,2.50
2019-01-30T13:41:01.166Z,2.72
2019-01-30T13:43:27.966Z,2.55
2019-01-30T13:46:05.008Z,2.50
2019-01-30T13:48:23.784Z,2.27
2019-01-30T13:50:50.937Z,2.00
2019-01-30T13:53:17.939Z,1.72
2019-01-30T13:55:45.217Z,1.30
2019-01-30T13:58:12.022Z,1.60
2019-01-30T14:00:39.133Z,1.25
2019-01-30T14:03:06.917Z,1.37
2019-01-30T14:05:33.996Z,1.40
2019-01-30T14:08:02.934Z,1.27
2019-01-30T14:10:30.452Z,1.60
2019-01-30T14:12:57.618Z,1.40
2019-01-30T14:15:25.190Z,1.47
2019-01-30T14:17:52.189Z,1.35
2019-01-30T14:20:19.641Z,1.55
2019-01-30T14:22:46.854Z,1.40
2019-01-30T14:25:14.291Z,1.47
2019-01-30T14:27:41.309Z,1.30
2019-01-30T14:30:18.743Z,1.50
2019-01-30T14:32:45.789Z,1.30
2019-01-30T14:35:12.864Z,1.70
2019-01-30T14:37:39.825Z,1.40
2019-01-30T14:40:08.169Z,1.50
2019-01-30T14:42:36.980Z,1.40
2019-01-30T14:45:05.364Z,1.20
2019-01-30T14:47:32.731Z,1.42
2019-01-30T14:50:00.147Z,1.80
2019-01-30T14:52:27.174Z,1.27
2019-01-30T14:54:54.049Z,1.30
2019-01-30T14:57:21.106Z,1.10
2019-01-30T14:59:49.590Z,1.25
2019-01-30T15:02:16.603Z,1.45
2019-01-30T15:04:43.843Z,1.45
2019-01-30T15:07:10.881Z,1.50
2019-01-30T15:09:38.080Z,1.60
2019-01-30T15:12:05.480Z,1.60
2019-01-30T15:14:32.364Z,1.50
2019-01-30T15:16:59.241Z,1.52
2019-01-30T15:19:26.173Z,1.50
2019-01-30T15:21:53.161Z,1.55
2019-01-30T15:24:20.089Z,1.70
2019-01-30T15:26:47.166Z,1.77
2019-01-30T15:29:14.129Z,1.98
2019-01-30T15:31:41.558Z,1.80
2019-01-30T15:34:08.620Z,1.60
2019-01-30T15:36:35.633Z,1.65
2019-01-30T15:39:06.461Z,1.57
2019-01-30T15:41:33.258Z,1.50
2019-01-30T15:44:00.066Z,1.80
2019-01-30T15:46:26.859Z,1.67
2019-01-30T15:48:53.666Z,1.95
2019-01-30T15:51:20.606Z,1.92
2019-01-30T15:53:47.426Z,2.05
2019-01-30T15:56:14.316Z,2.00
2019-01-30T15:58:41.468Z,1.60
2019-01-30T16:01:19.497Z,1.70
2019-01-30T16:03:46.306Z,2.08
2019-01-30T16:06:13.091Z,2.08
2019-01-30T16:08:40.277Z,1.92
2019-01-30T16:11:07.280Z,2.10
2019-01-30T16:13:34.097Z,1.95
2019-01-30T16:16:02.725Z,2.33
2019-01-30T16:18:29.790Z,1.90
2019-01-30T16:20:56.810Z,2.30
2019-01-30T16:23:23.965Z,1.92
2019-01-30T16:25:50.985Z,2.00
2019-01-30T16:28:17.890Z,1.70
2019-01-30T16:30:44.804Z,2.40
2019-01-30T16:33:11.969Z,2.12
2019-01-30T16:35:39.127Z,1.98
2019-01-30T16:38:06.933Z,1.75
2019-01-30T16:40:33.950Z,2.40
2019-01-30T16:43:00.842Z,2.12
2019-01-30T16:45:27.962Z,2.17
2019-01-30T16:47:55.300Z,1.95
2019-01-30T16:50:22.313Z,2.20
2019-01-30T16:52:49.317Z,2.58
2019-01-30T16:55:16.659Z,2.00
2019-01-30T16:57:43.949Z,2.20
2019-01-30T17:00:17.145Z,2.17
2019-01-30T17:02:44.145Z,2.00
2019-01-30T17:05:12.251Z,2.62
2019-01-30T17:07:39.153Z,2.40
2019-01-30T17:10:07.549Z,3.00
2019-01-30T17:12:34.456Z,2.70
2019-01-30T17:15:01.517Z,2.70
2019-01-30T17:17:28.456Z,2.33
2019-01-30T17:19:55.370Z,2.00
2019-01-30T17:22:22.301Z,2.45
2019-01-30T17:24:49.354Z,2.42
2019-01-30T17:27:16.494Z,2.42
2019-01-30T17:29:43.553Z,2.80
2019-01-30T17:32:10.718Z,2.55
2019-01-30T17:34:37.766Z,2.37
2019-01-30T17:37:04.798Z,2.85
2019-01-30T17:39:32.094Z,2.55
2019-01-30T17:41:58.922Z,2.52
2019-01-30T17:44:25.820Z,2.80
2019-01-30T17:46:52.837Z,2.70
2019-01-30T17:49:20.808Z,3.17
2019-01-30T17:51:47.702Z,2.95
2019-01-30T17:54:14.750Z,3.33
2019-01-30T17:56:42.085Z,2.85
2019-01-30T17:59:08.972Z,2.42
2019-01-30T18:01:36.317Z,3.10
2019-01-30T18:04:03.879Z,3.08
2019-01-30T18:06:30.874Z,2.40
2019-01-30T18:08:57.777Z,2.85
2019-01-30T18:11:24.765Z,2.90
2019-01-30T18:13:51.947Z,3.08
2019-01-30T18:16:19.275Z,3.05
2019-01-30T18:18:46.186Z,3.33
2019-01-30T18:21:13.286Z,4.80
2019-01-30T18:23:40.253Z,3.25
2019-01-30T18:26:07.307Z,3.42
2019-01-30T18:28:34.130Z,3.67
2019-01-30T18:31:01.193Z,3.02
2019-01-30T18:33:28.007Z,3.10
2019-01-30T18:35:56.136Z,2.87
2019-01-30T18:38:23.050Z,2.67
2019-01-30T18:40:49.950Z,3.00
2019-01-30T18:43:16.761Z,3.00
2019-01-30T18:45:43.919Z,3.10
2019-01-30T18:48:11.018Z,3.75
2019-01-30T18:50:37.913Z,3.75
2019-01-30T18:53:05.023Z,3.62
2019-01-30T18:55:32.054Z,3.65
2019-01-30T18:57:59.097Z,3.30
2019-01-30T19:00:31.372Z,2.95
2019-01-30T19:02:59.952Z,3.12
2019-01-30T19:05:27.753Z,3.30
2019-01-30T19:07:54.900Z,3.02
2019-01-30T19:10:21.726Z,3.10
2019-01-30T19:12:48.954Z,2.90
2019-01-30T19:15:17.619Z,3.02
2019-01-30T19:17:44.608Z,3.05
2019-01-30T19:20:14.821Z,2.85
2019-01-30T19:22:41.717Z,3.17
2019-01-30T19:25:08.997Z,2.65
2019-01-30T19:27:35.891Z,2.52
2019-01-30T19:30:04.806Z,2.45
2019-01-30T19:32:31.606Z,2.70
2019-01-30T19:34:58.520Z,2.45
2019-01-30T19:37:25.573Z,2.47
2019-01-30T19:39:52.389Z,2.98
2019-01-30T19:42:19.188Z,2.70
2019-01-30T19:44:46.000Z,2.75
2019-01-30T19:47:13.253Z,2.65
2019-01-30T19:49:40.327Z,3.33
2019-01-30T19:52:07.354Z,2.60
2019-01-30T19:54:34.512Z,2.65
2019-01-30T19:57:01.580Z,2.65
2019-01-30T19:59:28.377Z,2.10
2019-01-30T20:01:55.452Z,2.60
2019-01-30T20:04:22.453Z,3.25
2019-01-30T20:06:49.264Z,2.62
2019-01-30T20:09:17.600Z,2.98
2019-01-30T20:11:44.802Z,2.90
2019-01-30T20:14:12.205Z,3.00
2019-01-30T20:16:39.509Z,3.05
2019-01-30T20:19:06.508Z,2.77
2019-01-30T20:21:33.538Z,2.50
2019-01-30T20:24:00.549Z,2.90
2019-01-30T20:26:27.666Z,2.90
2019-01-30T20:28:54.697Z,2.75
2019-01-30T20:31:21.841Z,2.62
2019-01-30T20:33:48.717Z,2.52
2019-01-30T20:36:15.566Z,2.83
2019-01-30T20:38:42.836Z,2.65
2019-01-30T20:41:09.839Z,2.60
2019-01-30T20:43:36.873Z,2.95
2019-01-30T20:46:03.901Z,2.50
2019-01-30T20:48:30.965Z,2.80
2019-01-30T20:50:58.013Z,2.45
2019-01-30T20:53:24.925Z,1.90
2019-01-30T20:55:51.801Z,2.77
2019-01-30T20:58:18.636Z,2.30
2019-01-30T21:00:45.642Z,2.50
2019-01-30T21:03:12.730Z,2.92
2019-01-30T21:05:39.725Z,2.67
2019-01-30T21:08:08.441Z,2.00
2019-01-30T21:10:37.611Z,2.75
2019-01-30T21:13:05.638Z,2.42
2019-01-30T21:15:32.542Z,2.65
2019-01-30T21:17:59.624Z,3.17
2019-01-30T21:20:26.530Z,2.70
2019-01-30T21:22:53.729Z,2.30
2019-01-30T21:25:21.022Z,2.35
2019-01-30T21:27:48.074Z,2.20
2019-01-30T21:30:20.520Z,2.52
2019-01-30T21:32:48.837Z,2.67
2019-01-30T21:35:16.289Z,2.55
2019-01-30T21:37:49.007Z,2.80
2019-01-30T21:40:14.056Z,3.45
2019-01-30T21:42:42.599Z,3.37
2019-01-30T21:45:12.458Z,3.55
2019-01-30T21:47:39.643Z,2.75
2019-01-30T21:50:07.068Z,3.17
2019-01-30T21:52:33.984Z,3.02
2019-01-30T21:55:01.158Z,2.60
2019-01-30T21:57:28.410Z,3.00
2019-01-30T21:59:55.745Z,2.50
2019-01-30T22:02:22.988Z,3.70
2019-01-30T22:04:49.909Z,3.20
2019-01-30T22:07:16.714Z,3.40
2019-01-30T22:09:43.531Z,3.52
2019-01-30T22:12:10.908Z,3.37
2019-01-30T22:14:38.156Z,3.47
2019-01-30T22:17:05.512Z,3.60
2019-01-30T22:19:32.312Z,3.15
2019-01-30T22:21:59.505Z,3.35
2019-01-30T22:24:27.366Z,3.80
2019-01-30T22:26:54.435Z,3.22
2019-01-30T22:29:21.350Z,2.90
2019-01-30T22:31:48.359Z,3.50
2019-01-30T22:34:15.182Z,3.42
2019-01-30T22:36:42.245Z,3.20
2019-01-30T22:39:09.446Z,3.83
2019-01-30T22:41:36.674Z,3.90
2019-01-30T22:44:04.066Z,3.40
2019-01-30T22:46:31.360Z,3.62
2019-01-30T22:48:58.718Z,3.83
2019-01-30T22:51:25.864Z,3.65
2019-01-30T22:53:52.945Z,2.87
2019-01-30T22:56:19.863Z,3.35
2019-01-30T22:58:46.970Z,3.42
2019-01-30T23:01:23.965Z,3.65
2019-01-30T23:04:36.314Z,3.35
2019-01-30T23:07:32.902Z,3.27
2019-01-30T23:10:36.273Z,3.10
2019-01-30T23:13:52.954Z,3.50
2019-01-30T23:17:00.360Z,3.55
2019-01-30T23:19:57.236Z,3.00
2019-01-30T23:23:08.328Z,3.20
2019-01-30T23:26:01.592Z,2.67
2019-01-30T23:29:06.450Z,3.60
2019-01-30T23:32:08.834Z,2.75
2019-01-30T23:35:26.261Z,3.12
2019-01-30T23:38:34.111Z,2.70
2019-01-30T23:41:15.356Z,3.60
2019-01-30T23:44:28.585Z,3.20
2019-01-30T23:47:55.289Z,3.08
2019-01-30T23:50:48.045Z,3.10
2019-01-30T23:54:15.180Z,3.30
2019-01-30T23:57:31.796Z,2.52
